sensor_id;sensor_type;location;lat;lon;timestamp;temperature;humidity
3310;DHT22;1667;53.238;10.394;2022-08-19T00:03:57;23.70;93.00
3310;DHT22;1667;53.238;10.394;2022-08-19T00:08:55;23.70;93.30
3310;DHT22;1667;53.238;10.394;2022-08-19T00:13:54;23.60;93.10
3310;DHT22;1667;53.238;10.394;2022-08-19T00:18:54;23.60;93.30
3310;DHT22;1667;53.238;10.394;2022-08-19T00:23:53;23.50;93.30
3310;DHT22;1667;53.238;10.394;2022-08-19T00:28:55;23.40;93.40
3310;DHT22;1667;53.238;10.394;2022-08-19T00:33:54;23.40;93.50
3310;DHT22;1667;53.238;10.394;2022-08-19T00:38:53;23.40;93.70
3310;DHT22;1667;53.238;10.394;2022-08-19T00:44:00;23.30;93.60
3310;DHT22;1667;53.238;10.394;2022-08-19T00:49:10;23.40;94.00
3310;DHT22;1667;53.238;10.394;2022-08-19T00:54:11;23.30;93.80
3310;DHT22;1667;53.238;10.394;2022-08-19T00:59:10;23.30;93.80
3310;DHT22;1667;53.238;10.394;2022-08-19T01:04:10;23.30;94.30
3310;DHT22;1667;53.238;10.394;2022-08-19T01:09:09;23.30;94.00
3310;DHT22;1667;53.238;10.394;2022-08-19T01:14:08;23.20;94.00
3310;DHT22;1667;53.238;10.394;2022-08-19T01:19:15;23.20;94.00
3310;DHT22;1667;53.238;10.394;2022-08-19T01:24:17;23.30;94.20
3310;DHT22;1667;53.238;10.394;2022-08-19T01:29:15;23.20;94.20
3310;DHT22;1667;53.238;10.394;2022-08-19T01:34:13;23.20;94.20
3310;DHT22;1667;53.238;10.394;2022-08-19T01:39:13;23.20;94.30
3310;DHT22;1667;53.238;10.394;2022-08-19T01:44:14;23.10;94.30
3310;DHT22;1667;53.238;10.394;2022-08-19T01:49:16;23.10;94.30
3310;DHT22;1667;53.238;10.394;2022-08-19T01:54:16;23.10;94.30
3310;DHT22;1667;53.238;10.394;2022-08-19T01:59:25;23.10;94.30
3310;DHT22;1667;53.238;10.394;2022-08-19T02:04:23;23.10;94.40
3310;DHT22;1667;53.238;10.394;2022-08-19T02:09:22;23.10;94.50
3310;DHT22;1667;53.238;10.394;2022-08-19T02:14:24;23.00;94.40
3310;DHT22;1667;53.238;10.394;2022-08-19T02:19:22;23.00;94.40
3310;DHT22;1667;53.238;10.394;2022-08-19T02:24:20;23.00;94.40
3310;DHT22;1667;53.238;10.394;2022-08-19T02:29:18;22.90;94.50
3310;DHT22;1667;53.238;10.394;2022-08-19T02:34:18;22.90;94.60
3310;DHT22;1667;53.238;10.394;2022-08-19T02:39:18;22.90;94.50
3310;DHT22;1667;53.238;10.394;2022-08-19T02:44:16;22.90;94.50
3310;DHT22;1667;53.238;10.394;2022-08-19T02:49:30;22.80;94.40
3310;DHT22;1667;53.238;10.394;2022-08-19T02:54:30;22.80;94.50
3310;DHT22;1667;53.238;10.394;2022-08-19T02:59:31;22.70;94.60
3310;DHT22;1667;53.238;10.394;2022-08-19T03:04:31;22.70;94.70
3310;DHT22;1667;53.238;10.394;2022-08-19T03:09:29;22.70;94.70
3310;DHT22;1667;53.238;10.394;2022-08-19T03:14:30;22.70;95.10
3310;DHT22;1667;53.238;10.394;2022-08-19T03:19:28;22.60;94.70
3310;DHT22;1667;53.238;10.394;2022-08-19T03:24:28;22.60;94.80
3310;DHT22;1667;53.238;10.394;2022-08-19T03:29:28;22.60;94.70
3310;DHT22;1667;53.238;10.394;2022-08-19T03:34:30;22.60;94.80
3310;DHT22;1667;53.238;10.394;2022-08-19T03:39:30;22.60;94.80
3310;DHT22;1667;53.238;10.394;2022-08-19T03:44:30;22.60;94.90
3310;DHT22;1667;53.238;10.394;2022-08-19T03:49:30;22.60;94.80
3310;DHT22;1667;53.238;10.394;2022-08-19T03:54:31;22.60;94.90
3310;DHT22;1667;53.238;10.394;2022-08-19T03:59:31;22.70;95.00
3310;DHT22;1667;53.238;10.394;2022-08-19T04:04:30;22.60;94.80
3310;DHT22;1667;53.238;10.394;2022-08-19T04:09:28;22.60;94.80
3310;DHT22;1667;53.238;10.394;2022-08-19T04:14:29;22.60;94.80
3310;DHT22;1667;53.238;10.394;2022-08-19T04:19:29;22.60;95.00
3310;DHT22;1667;53.238;10.394;2022-08-19T04:24:28;22.60;95.00
3310;DHT22;1667;53.238;10.394;2022-08-19T04:29:28;22.60;94.90
3310;DHT22;1667;53.238;10.394;2022-08-19T04:34:28;22.60;95.00
3310;DHT22;1667;53.238;10.394;2022-08-19T04:39:29;22.60;95.10
3310;DHT22;1667;53.238;10.394;2022-08-19T04:44:43;22.50;95.00
3310;DHT22;1667;53.238;10.394;2022-08-19T04:49:42;22.50;95.00
3310;DHT22;1667;53.238;10.394;2022-08-19T04:54:40;22.50;95.10
3310;DHT22;1667;53.238;10.394;2022-08-19T04:59:39;22.50;95.20
3310;DHT22;1667;53.238;10.394;2022-08-19T05:04:39;22.50;95.30
3310;DHT22;1667;53.238;10.394;2022-08-19T05:09:37;22.50;95.40
3310;DHT22;1667;53.238;10.394;2022-08-19T05:14:54;22.50;95.40
3310;DHT22;1667;53.238;10.394;2022-08-19T05:19:55;22.50;95.50
3310;DHT22;1667;53.238;10.394;2022-08-19T05:25:14;22.40;95.50
3310;DHT22;1667;53.238;10.394;2022-08-19T05:30:16;22.40;95.60
3310;DHT22;1667;53.238;10.394;2022-08-19T05:35:31;22.40;95.60
3310;DHT22;1667;53.238;10.394;2022-08-19T05:40:30;22.40;95.60
3310;DHT22;1667;53.238;10.394;2022-08-19T05:45:29;22.50;95.60
3310;DHT22;1667;53.238;10.394;2022-08-19T05:50:27;22.50;95.60
3310;DHT22;1667;53.238;10.394;2022-08-19T05:55:28;22.50;95.70
3310;DHT22;1667;53.238;10.394;2022-08-19T06:00:26;22.50;95.90
3310;DHT22;1667;53.238;10.394;2022-08-19T06:05:24;22.50;95.90
3310;DHT22;1667;53.238;10.394;2022-08-19T06:10:23;22.50;95.90
3310;DHT22;1667;53.238;10.394;2022-08-19T06:15:23;22.50;96.00
3310;DHT22;1667;53.238;10.394;2022-08-19T06:20:24;22.50;96.20
3310;DHT22;1667;53.238;10.394;2022-08-19T06:25:43;22.50;96.20
3310;DHT22;1667;53.238;10.394;2022-08-19T06:30:42;22.50;96.50
3310;DHT22;1667;53.238;10.394;2022-08-19T06:35:41;22.60;96.60
3310;DHT22;1667;53.238;10.394;2022-08-19T06:40:44;22.60;96.60
3310;DHT22;1667;53.238;10.394;2022-08-19T06:45:44;22.60;96.60
3310;DHT22;1667;53.238;10.394;2022-08-19T06:50:43;22.60;96.90
3310;DHT22;1667;53.238;10.394;2022-08-19T06:55:41;22.60;96.80
3310;DHT22;1667;53.238;10.394;2022-08-19T07:00:40;22.60;97.00
3310;DHT22;1667;53.238;10.394;2022-08-19T07:05:41;22.60;96.90
3310;DHT22;1667;53.238;10.394;2022-08-19T07:10:43;22.60;97.00
3310;DHT22;1667;53.238;10.394;2022-08-19T07:15:42;22.60;97.00
3310;DHT22;1667;53.238;10.394;2022-08-19T07:20:44;22.60;97.10
3310;DHT22;1667;53.238;10.394;2022-08-19T07:25:43;22.60;97.10
3310;DHT22;1667;53.238;10.394;2022-08-19T07:30:49;22.60;97.10
3310;DHT22;1667;53.238;10.394;2022-08-19T07:35:50;22.60;97.00
3310;DHT22;1667;53.238;10.394;2022-08-19T07:40:48;22.60;97.10
3310;DHT22;1667;53.238;10.394;2022-08-19T07:45:48;22.70;97.10
3310;DHT22;1667;53.238;10.394;2022-08-19T07:50:51;22.70;97.20
3310;DHT22;1667;53.238;10.394;2022-08-19T07:55:50;22.70;97.10
3310;DHT22;1667;53.238;10.394;2022-08-19T08:00:50;22.70;97.20
3310;DHT22;1667;53.238;10.394;2022-08-19T08:05:49;22.70;97.20
3310;DHT22;1667;53.238;10.394;2022-08-19T08:11:10;22.60;97.20
3310;DHT22;1667;53.238;10.394;2022-08-19T08:16:11;22.70;97.20
3310;DHT22;1667;53.238;10.394;2022-08-19T08:21:11;22.70;97.20
3310;DHT22;1667;53.238;10.394;2022-08-19T08:26:10;22.70;97.30
3310;DHT22;1667;53.238;10.394;2022-08-19T08:31:11;22.70;97.10
3310;DHT22;1667;53.238;10.394;2022-08-19T08:36:12;22.70;97.20
3310;DHT22;1667;53.238;10.394;2022-08-19T08:41:17;22.70;97.30
3310;DHT22;1667;53.238;10.394;2022-08-19T08:46:20;22.70;97.30
3310;DHT22;1667;53.238;10.394;2022-08-19T08:51:33;22.70;97.30
3310;DHT22;1667;53.238;10.394;2022-08-19T08:56:33;22.70;97.30
3310;DHT22;1667;53.238;10.394;2022-08-19T09:01:31;22.70;97.40
3310;DHT22;1667;53.238;10.394;2022-08-19T09:06:40;22.70;97.30
3310;DHT22;1667;53.238;10.394;2022-08-19T09:11:54;22.70;97.30
3310;DHT22;1667;53.238;10.394;2022-08-19T09:16:53;22.70;97.30
3310;DHT22;1667;53.238;10.394;2022-08-19T09:21:53;22.70;97.40
3310;DHT22;1667;53.238;10.394;2022-08-19T09:26:52;22.70;97.50
3310;DHT22;1667;53.238;10.394;2022-08-19T09:31:53;22.70;97.40
3310;DHT22;1667;53.238;10.394;2022-08-19T09:36:53;22.70;97.50
3310;DHT22;1667;53.238;10.394;2022-08-19T09:41:52;22.70;97.90
3310;DHT22;1667;53.238;10.394;2022-08-19T09:46:53;22.70;97.40
3310;DHT22;1667;53.238;10.394;2022-08-19T09:51:54;22.70;97.40
3310;DHT22;1667;53.238;10.394;2022-08-19T09:56:53;22.80;97.50
3310;DHT22;1667;53.238;10.394;2022-08-19T10:01:52;22.70;97.50
3310;DHT22;1667;53.238;10.394;2022-08-19T10:07:00;22.80;97.80
3310;DHT22;1667;53.238;10.394;2022-08-19T10:12:02;22.80;97.90
3310;DHT22;1667;53.238;10.394;2022-08-19T10:17:02;22.80;97.90
3310;DHT22;1667;53.238;10.394;2022-08-19T10:22:19;22.80;97.90
3310;DHT22;1667;53.238;10.394;2022-08-19T10:27:17;22.80;97.90
3310;DHT22;1667;53.238;10.394;2022-08-19T10:32:16;22.80;97.80
3310;DHT22;1667;53.238;10.394;2022-08-19T10:37:29;22.80;97.90
3310;DHT22;1667;53.238;10.394;2022-08-19T10:42:28;22.80;98.20
3310;DHT22;1667;53.238;10.394;2022-08-19T10:47:28;22.90;97.90
3310;DHT22;1667;53.238;10.394;2022-08-19T10:52:29;22.90;97.80
3310;DHT22;1667;53.238;10.394;2022-08-19T10:57:35;23.00;97.90
3310;DHT22;1667;53.238;10.394;2022-08-19T11:02:53;23.00;97.80
3310;DHT22;1667;53.238;10.394;2022-08-19T11:07:53;23.10;97.80
3310;DHT22;1667;53.238;10.394;2022-08-19T11:12:52;23.10;97.70
3310;DHT22;1667;53.238;10.394;2022-08-19T11:17:51;23.20;97.70
3310;DHT22;1667;53.238;10.394;2022-08-19T11:22:52;23.20;97.80
3310;DHT22;1667;53.238;10.394;2022-08-19T11:27:51;23.20;97.80
3310;DHT22;1667;53.238;10.394;2022-08-19T11:32:50;23.30;97.90
3310;DHT22;1667;53.238;10.394;2022-08-19T11:37:48;23.40;97.70
3310;DHT22;1667;53.238;10.394;2022-08-19T11:42:46;23.50;97.60
3310;DHT22;1667;53.238;10.394;2022-08-19T11:47:55;23.50;97.70
3310;DHT22;1667;53.238;10.394;2022-08-19T11:52:54;23.40;97.80
3310;DHT22;1667;53.238;10.394;2022-08-19T11:57:53;23.70;97.60
3310;DHT22;1667;53.238;10.394;2022-08-19T12:02:51;23.70;97.60
3310;DHT22;1667;53.238;10.394;2022-08-19T12:07:52;23.80;97.30
3310;DHT22;1667;53.238;10.394;2022-08-19T12:12:51;23.90;97.30
3310;DHT22;1667;53.238;10.394;2022-08-19T12:17:55;23.90;97.30
3310;DHT22;1667;53.238;10.394;2022-08-19T12:22:54;24.10;97.30
3310;DHT22;1667;53.238;10.394;2022-08-19T12:27:53;24.00;97.20
3310;DHT22;1667;53.238;10.394;2022-08-19T12:32:54;24.10;97.30
3310;DHT22;1667;53.238;10.394;2022-08-19T12:37:55;24.10;97.20
3310;DHT22;1667;53.238;10.394;2022-08-19T12:42:53;24.20;97.20
3310;DHT22;1667;53.238;10.394;2022-08-19T12:47:52;24.20;97.10
3310;DHT22;1667;53.238;10.394;2022-08-19T12:52:51;24.30;97.00
3310;DHT22;1667;53.238;10.394;2022-08-19T12:57:51;24.30;97.00
3310;DHT22;1667;53.238;10.394;2022-08-19T13:02:51;24.30;97.00
3310;DHT22;1667;53.238;10.394;2022-08-19T13:07:51;24.40;97.20
3310;DHT22;1667;53.238;10.394;2022-08-19T13:12:54;24.50;97.30
3310;DHT22;1667;53.238;10.394;2022-08-19T13:17:53;24.60;97.00
3310;DHT22;1667;53.238;10.394;2022-08-19T13:22:53;24.70;97.00
3310;DHT22;1667;53.238;10.394;2022-08-19T13:27:55;24.80;97.10
3310;DHT22;1667;53.238;10.394;2022-08-19T13:32:53;24.90;97.10
3310;DHT22;1667;53.238;10.394;2022-08-19T13:38:14;25.00;97.00
3310;DHT22;1667;53.238;10.394;2022-08-19T13:43:14;25.10;96.80
3310;DHT22;1667;53.238;10.394;2022-08-19T13:48:19;25.30;97.00
3310;DHT22;1667;53.238;10.394;2022-08-19T13:53:17;25.50;96.80
3310;DHT22;1667;53.238;10.394;2022-08-19T13:58:17;25.70;96.70
3310;DHT22;1667;53.238;10.394;2022-08-19T14:03:15;25.90;96.50
3310;DHT22;1667;53.238;10.394;2022-08-19T14:08:13;26.10;96.10
3310;DHT22;1667;53.238;10.394;2022-08-19T14:13:14;26.30;96.10
3310;DHT22;1667;53.238;10.394;2022-08-19T14:18:14;26.50;95.80
3310;DHT22;1667;53.238;10.394;2022-08-19T14:23:13;26.60;95.60
3310;DHT22;1667;53.238;10.394;2022-08-19T14:28:12;26.70;95.30
3310;DHT22;1667;53.238;10.394;2022-08-19T14:33:10;26.70;95.10
3310;DHT22;1667;53.238;10.394;2022-08-19T14:38:15;26.70;94.80
3310;DHT22;1667;53.238;10.394;2022-08-19T14:43:18;26.70;94.70
3310;DHT22;1667;53.238;10.394;2022-08-19T14:48:16;26.70;94.50
3310;DHT22;1667;53.238;10.394;2022-08-19T14:53:17;26.70;94.60
3310;DHT22;1667;53.238;10.394;2022-08-19T14:58:15;26.80;94.30
3310;DHT22;1667;53.238;10.394;2022-08-19T15:03:26;26.80;94.10
3310;DHT22;1667;53.238;10.394;2022-08-19T15:08:27;26.80;94.00
3310;DHT22;1667;53.238;10.394;2022-08-19T15:13:27;26.80;93.90
3310;DHT22;1667;53.238;10.394;2022-08-19T15:18:25;26.80;93.90
3310;DHT22;1667;53.238;10.394;2022-08-19T15:23:24;26.80;93.90
3310;DHT22;1667;53.238;10.394;2022-08-19T15:28:24;26.90;94.00
3310;DHT22;1667;53.238;10.394;2022-08-19T15:33:23;27.00;94.00
3310;DHT22;1667;53.238;10.394;2022-08-19T15:38:22;27.10;93.30
3310;DHT22;1667;53.238;10.394;2022-08-19T15:43:24;27.10;93.40
3310;DHT22;1667;53.238;10.394;2022-08-19T15:48:22;27.10;93.00
3310;DHT22;1667;53.238;10.394;2022-08-19T15:53:20;27.20;93.50
3310;DHT22;1667;53.238;10.394;2022-08-19T15:58:18;27.20;93.10
3310;DHT22;1667;53.238;10.394;2022-08-19T16:03:35;27.20;93.10
3310;DHT22;1667;53.238;10.394;2022-08-19T16:08:53;27.20;92.90
3310;DHT22;1667;53.238;10.394;2022-08-19T16:13:52;27.10;93.00
3310;DHT22;1667;53.238;10.394;2022-08-19T16:18:55;27.00;92.70
3310;DHT22;1667;53.238;10.394;2022-08-19T16:23:55;27.00;92.70
3310;DHT22;1667;53.238;10.394;2022-08-19T16:28:53;26.90;92.80
3310;DHT22;1667;53.238;10.394;2022-08-19T16:33:52;26.90;92.90
3310;DHT22;1667;53.238;10.394;2022-08-19T16:38:54;26.80;92.50
3310;DHT22;1667;53.238;10.394;2022-08-19T16:43:53;26.80;92.80
3310;DHT22;1667;53.238;10.394;2022-08-19T16:48:51;26.80;92.80
3310;DHT22;1667;53.238;10.394;2022-08-19T16:53:50;26.80;92.80
3310;DHT22;1667;53.238;10.394;2022-08-19T16:58:51;26.80;92.60
3310;DHT22;1667;53.238;10.394;2022-08-19T17:03:49;26.80;92.50
3310;DHT22;1667;53.238;10.394;2022-08-19T17:08:50;26.70;92.60
3310;DHT22;1667;53.238;10.394;2022-08-19T17:13:50;26.70;92.60
3310;DHT22;1667;53.238;10.394;2022-08-19T17:18:49;26.70;92.60
3310;DHT22;1667;53.238;10.394;2022-08-19T17:23:48;26.70;92.20
3310;DHT22;1667;53.238;10.394;2022-08-19T17:28:47;26.70;92.40
3310;DHT22;1667;53.238;10.394;2022-08-19T17:33:47;26.60;92.30
3310;DHT22;1667;53.238;10.394;2022-08-19T17:38:45;26.50;92.40
3310;DHT22;1667;53.238;10.394;2022-08-19T17:43:44;26.50;92.30
3310;DHT22;1667;53.238;10.394;2022-08-19T17:48:43;26.40;92.20
3310;DHT22;1667;53.238;10.394;2022-08-19T17:53:50;26.40;92.40
3310;DHT22;1667;53.238;10.394;2022-08-19T17:58:49;26.30;92.40
3310;DHT22;1667;53.238;10.394;2022-08-19T18:03:56;26.20;92.50
3310;DHT22;1667;53.238;10.394;2022-08-19T18:08:56;26.20;92.50
3310;DHT22;1667;53.238;10.394;2022-08-19T18:13:54;26.10;92.50
3310;DHT22;1667;53.238;10.394;2022-08-19T18:18:53;26.10;92.50
3310;DHT22;1667;53.238;10.394;2022-08-19T18:23:51;26.00;92.40
3310;DHT22;1667;53.238;10.394;2022-08-19T18:28:59;25.90;92.50
3310;DHT22;1667;53.238;10.394;2022-08-19T18:33:57;25.80;92.50
3310;DHT22;1667;53.238;10.394;2022-08-19T18:38:56;25.80;92.50
3310;DHT22;1667;53.238;10.394;2022-08-19T18:44:13;25.70;92.50
3310;DHT22;1667;53.238;10.394;2022-08-19T18:49:31;25.60;92.40
3310;DHT22;1667;53.238;10.394;2022-08-19T18:54:30;25.50;92.40
3310;DHT22;1667;53.238;10.394;2022-08-19T18:59:34;25.40;92.50
3310;DHT22;1667;53.238;10.394;2022-08-19T19:04:35;25.30;92.60
3310;DHT22;1667;53.238;10.394;2022-08-19T19:09:34;25.20;92.70
3310;DHT22;1667;53.238;10.394;2022-08-19T19:14:36;25.10;92.70
3310;DHT22;1667;53.238;10.394;2022-08-19T19:19:45;25.00;92.70
3310;DHT22;1667;53.238;10.394;2022-08-19T19:24:44;24.90;92.70
3310;DHT22;1667;53.238;10.394;2022-08-19T19:29:43;24.80;92.60
3310;DHT22;1667;53.238;10.394;2022-08-19T19:34:47;24.70;92.70
3310;DHT22;1667;53.238;10.394;2022-08-19T19:39:46;24.60;92.70
3310;DHT22;1667;53.238;10.394;2022-08-19T19:44:46;24.50;92.80
3310;DHT22;1667;53.238;10.394;2022-08-19T19:49:45;24.40;92.90
3310;DHT22;1667;53.238;10.394;2022-08-19T19:55:07;24.30;92.80
3310;DHT22;1667;53.238;10.394;2022-08-19T20:00:14;24.20;92.90
3310;DHT22;1667;53.238;10.394;2022-08-19T20:05:14;24.10;92.90
3310;DHT22;1667;53.238;10.394;2022-08-19T20:10:12;23.90;92.80
3310;DHT22;1667;53.238;10.394;2022-08-19T20:15:12;23.80;92.80
3310;DHT22;1667;53.238;10.394;2022-08-19T20:20:12;23.70;92.90
3310;DHT22;1667;53.238;10.394;2022-08-19T20:25:13;23.60;92.90
3310;DHT22;1667;53.238;10.394;2022-08-19T20:30:15;23.60;92.90
3310;DHT22;1667;53.238;10.394;2022-08-19T20:35:17;23.50;93.00
3310;DHT22;1667;53.238;10.394;2022-08-19T20:40:17;23.40;93.00
3310;DHT22;1667;53.238;10.394;2022-08-19T20:45:21;23.30;92.90
3310;DHT22;1667;53.238;10.394;2022-08-19T20:50:30;23.20;93.10
3310;DHT22;1667;53.238;10.394;2022-08-19T20:55:28;23.10;93.00
3310;DHT22;1667;53.238;10.394;2022-08-19T21:00:28;23.10;93.20
3310;DHT22;1667;53.238;10.394;2022-08-19T21:05:27;23.00;93.20
3310;DHT22;1667;53.238;10.394;2022-08-19T21:10:26;23.00;93.10
3310;DHT22;1667;53.238;10.394;2022-08-19T21:15:24;22.90;93.10
3310;DHT22;1667;53.238;10.394;2022-08-19T21:20:24;22.90;93.20
3310;DHT22;1667;53.238;10.394;2022-08-19T21:25:23;22.80;93.20
3310;DHT22;1667;53.238;10.394;2022-08-19T21:30:23;22.80;93.20
3310;DHT22;1667;53.238;10.394;2022-08-19T21:35:23;22.70;93.40
3310;DHT22;1667;53.238;10.394;2022-08-19T21:40:22;22.60;93.40
3310;DHT22;1667;53.238;10.394;2022-08-19T21:45:21;22.60;93.60
3310;DHT22;1667;53.238;10.394;2022-08-19T21:50:20;22.50;93.70
3310;DHT22;1667;53.238;10.394;2022-08-19T21:55:25;22.50;93.70
3310;DHT22;1667;53.238;10.394;2022-08-19T22:00:25;22.50;93.70
3310;DHT22;1667;53.238;10.394;2022-08-19T22:05:28;22.50;93.70
3310;DHT22;1667;53.238;10.394;2022-08-19T22:10:31;22.50;93.80
3310;DHT22;1667;53.238;10.394;2022-08-19T22:15:30;22.40;93.90
3310;DHT22;1667;53.238;10.394;2022-08-19T22:20:30;22.40;93.90
3310;DHT22;1667;53.238;10.394;2022-08-19T22:25:31;22.40;94.10
3310;DHT22;1667;53.238;10.394;2022-08-19T22:30:31;22.30;94.00
3310;DHT22;1667;53.238;10.394;2022-08-19T22:35:34;22.30;94.10
3310;DHT22;1667;53.238;10.394;2022-08-19T22:40:36;22.30;94.10
3310;DHT22;1667;53.238;10.394;2022-08-19T22:45:35;22.20;94.10
3310;DHT22;1667;53.238;10.394;2022-08-19T22:50:34;22.20;94.10
3310;DHT22;1667;53.238;10.394;2022-08-19T22:55:37;22.20;94.10
3310;DHT22;1667;53.238;10.394;2022-08-19T23:00:36;22.20;94.20
3310;DHT22;1667;53.238;10.394;2022-08-19T23:05:34;22.10;94.20
3310;DHT22;1667;53.238;10.394;2022-08-19T23:10:37;22.10;94.30
3310;DHT22;1667;53.238;10.394;2022-08-19T23:15:35;22.10;94.50
3310;DHT22;1667;53.238;10.394;2022-08-19T23:20:35;22.00;94.50
3310;DHT22;1667;53.238;10.394;2022-08-19T23:25:37;22.00;94.60
3310;DHT22;1667;53.238;10.394;2022-08-19T23:30:39;22.00;94.60
3310;DHT22;1667;53.238;10.394;2022-08-19T23:35:39;22.00;94.70
3310;DHT22;1667;53.238;10.394;2022-08-19T23:40:39;21.90;94.50
3310;DHT22;1667;53.238;10.394;2022-08-19T23:45:39;21.90;94.70
3310;DHT22;1667;53.238;10.394;2022-08-19T23:50:47;21.80;94.50
3310;DHT22;1667;53.238;10.394;2022-08-19T23:55:47;21.80;94.60
